sensor_id;sensor_type;location;lat;lon;timestamp;pressure;altitude;pressure_sealevel;temperature;humidity
59877;BME280;45749;51.140;17.184;2022-12-18T00:01:24;101744.58;;;-5.09;94.47
59877;BME280;45749;51.140;17.184;2022-12-18T00:03:55;101746.64;;;-5.14;94.26
59877;BME280;45749;51.140;17.184;2022-12-18T00:06:22;101741.86;;;-5.20;94.33
59877;BME280;45749;51.140;17.184;2022-12-18T00:08:50;101740.48;;;-5.24;94.45
59877;BME280;45749;51.140;17.184;2022-12-18T00:11:21;101743.88;;;-5.27;94.66
59877;BME280;45749;51.140;17.184;2022-12-18T00:13:48;101745.63;;;-5.24;94.98
59877;BME280;45749;51.140;17.184;2022-12-18T00:16:20;101746.97;;;-5.21;94.91
59877;BME280;45749;51.140;17.184;2022-12-18T00:18:52;101750.88;;;-5.20;94.91
59877;BME280;45749;51.140;17.184;2022-12-18T00:21:16;101749.98;;;-5.20;94.87
59877;BME280;45749;51.140;17.184;2022-12-18T00:23:43;101758.55;;;-5.21;94.91
59877;BME280;45749;51.140;17.184;2022-12-18T00:26:21;101751.69;;;-5.21;95.02
59877;BME280;45749;51.140;17.184;2022-12-18T00:28:50;101760.27;;;-5.20;95.01
59877;BME280;45749;51.140;17.184;2022-12-18T00:31:19;101766.70;;;-5.22;94.99
59877;BME280;45749;51.140;17.184;2022-12-18T00:33:47;101761.50;;;-5.25;94.92
59877;BME280;45749;51.140;17.184;2022-12-18T00:36:23;101758.08;;;-5.24;95.12
59877;BME280;45749;51.140;17.184;2022-12-18T00:38:47;101764.12;;;-5.23;95.08
59877;BME280;45749;51.140;17.184;2022-12-18T00:41:15;101768.84;;;-5.23;95.32
59877;BME280;45749;51.140;17.184;2022-12-18T00:44:00;101779.61;;;-5.19;95.38
59877;BME280;45749;51.140;17.184;2022-12-18T00:46:26;101778.77;;;-5.17;95.28
59877;BME280;45749;51.140;17.184;2022-12-18T00:48:52;101779.61;;;-5.19;95.22
59877;BME280;45749;51.140;17.184;2022-12-18T00:51:18;101787.34;;;-5.19;95.12
59877;BME280;45749;51.140;17.184;2022-12-18T00:53:44;101787.28;;;-5.22;95.00
59877;BME280;45749;51.140;17.184;2022-12-18T00:56:10;101793.25;;;-5.24;95.10
59877;BME280;45749;51.140;17.184;2022-12-18T00:58:36;101795.39;;;-5.24;95.28
59877;BME280;45749;51.140;17.184;2022-12-18T01:01:04;101799.30;;;-5.21;95.38
59877;BME280;45749;51.140;17.184;2022-12-18T01:03:30;101800.59;;;-5.21;95.32
59877;BME280;45749;51.140;17.184;2022-12-18T01:05:56;101808.35;;;-5.19;95.49
59877;BME280;45749;51.140;17.184;2022-12-18T01:08:23;101814.84;;;-5.16;95.42
59877;BME280;45749;51.140;17.184;2022-12-18T01:10:49;101828.99;;;-5.16;95.38
59877;BME280;45749;51.140;17.184;2022-12-18T01:13:15;101823.47;;;-5.12;95.54
59877;BME280;45749;51.140;17.184;2022-12-18T01:15:49;101827.81;;;-5.10;95.35
59877;BME280;45749;51.140;17.184;2022-12-18T01:18:15;101829.10;;;-5.08;95.45
59877;BME280;45749;51.140;17.184;2022-12-18T01:20:53;101827.00;;;-5.06;95.40
59877;BME280;45749;51.140;17.184;2022-12-18T01:23:19;101823.95;;;-5.08;95.18
59877;BME280;45749;51.140;17.184;2022-12-18T01:25:45;101827.77;;;-5.11;95.18
59877;BME280;45749;51.140;17.184;2022-12-18T01:28:11;101839.77;;;-5.12;95.32
59877;BME280;45749;51.140;17.184;2022-12-18T01:30:37;101838.02;;;-5.14;95.32
59877;BME280;45749;51.140;17.184;2022-12-18T01:33:05;101836.25;;;-5.17;95.16
59877;BME280;45749;51.140;17.184;2022-12-18T01:35:31;101841.86;;;-5.16;95.46
59877;BME280;45749;51.140;17.184;2022-12-18T01:37:57;101850.02;;;-5.15;95.46
59877;BME280;45749;51.140;17.184;2022-12-18T01:40:23;101847.01;;;-5.16;95.47
59877;BME280;45749;51.140;17.184;2022-12-18T01:42:53;101846.16;;;-5.16;95.48
59877;BME280;45749;51.140;17.184;2022-12-18T01:45:31;101846.16;;;-5.16;95.58
59877;BME280;45749;51.140;17.184;2022-12-18T01:48:05;101852.16;;;-5.14;95.56
59877;BME280;45749;51.140;17.184;2022-12-18T01:50:36;101846.63;;;-5.12;95.62
59877;BME280;45749;51.140;17.184;2022-12-18T01:53:10;101849.26;;;-5.09;95.69
59877;BME280;45749;51.140;17.184;2022-12-18T01:55:48;101839.02;;;-5.06;95.73
59877;BME280;45749;51.140;17.184;2022-12-18T01:58:16;101842.94;;;-5.02;95.78
59877;BME280;45749;51.140;17.184;2022-12-18T02:00:43;101852.81;;;-5.01;95.67
59877;BME280;45749;51.140;17.184;2022-12-18T02:03:10;101848.56;;;-4.99;95.62
59877;BME280;45749;51.140;17.184;2022-12-18T02:05:45;101859.72;;;-4.99;95.62
59877;BME280;45749;51.140;17.184;2022-12-18T02:08:22;101855.43;;;-4.98;95.59
59877;BME280;45749;51.140;17.184;2022-12-18T02:11:08;101851.19;;;-4.96;95.62
59877;BME280;45749;51.140;17.184;2022-12-18T02:13:46;101848.14;;;-4.97;95.52
59877;BME280;45749;51.140;17.184;2022-12-18T02:22:15;101856.00;;;-4.89;95.69
59877;BME280;45749;51.140;17.184;2022-12-18T02:27:50;101864.22;;;-4.84;95.79
59877;BME280;45749;51.140;17.184;2022-12-18T02:30:17;101867.75;;;-4.79;95.74
59877;BME280;45749;51.140;17.184;2022-12-18T02:32:48;101862.64;;;-4.76;95.60
59877;BME280;45749;51.140;17.184;2022-12-18T02:35:18;101873.33;;;-4.78;95.40
59877;BME280;45749;51.140;17.184;2022-12-18T02:37:46;101871.61;;;-4.79;95.52
59877;BME280;45749;51.140;17.184;2022-12-18T02:40:14;101875.95;;;-4.75;95.60
59877;BME280;45749;51.140;17.184;2022-12-18T02:42:41;101872.09;;;-4.75;95.51
59877;BME280;45749;51.140;17.184;2022-12-18T02:45:08;101872.95;;;-4.76;95.54
59877;BME280;45749;51.140;17.184;2022-12-18T02:47:36;101872.95;;;-4.76;95.61
59877;BME280;45749;51.140;17.184;2022-12-18T02:53:10;101875.48;;;-4.77;95.40
59877;BME280;45749;51.140;17.184;2022-12-18T03:01:31;101880.63;;;-4.77;95.69
59877;BME280;45749;51.140;17.184;2022-12-18T03:04:04;101884.97;;;-4.75;95.74
59877;BME280;45749;51.140;17.184;2022-12-18T03:06:37;101879.39;;;-4.74;95.69
59877;BME280;45749;51.140;17.184;2022-12-18T03:09:15;101883.26;;;-4.74;95.58
59877;BME280;45749;51.140;17.184;2022-12-18T03:11:46;101883.73;;;-4.72;95.71
59877;BME280;45749;51.140;17.184;2022-12-18T03:14:34;101884.20;;;-4.69;95.67
59877;BME280;45749;51.140;17.184;2022-12-18T03:17:03;101884.21;;;-4.67;95.65
59877;BME280;45749;51.140;17.184;2022-12-18T03:19:32;101893.27;;;-4.66;95.63
59877;BME280;45749;51.140;17.184;2022-12-18T03:22:02;101892.42;;;-4.65;95.58
59877;BME280;45749;51.140;17.184;2022-12-18T03:24:30;101897.14;;;-4.64;95.38
59877;BME280;45749;51.140;17.184;2022-12-18T03:27:02;101900.14;;;-4.66;95.26
59877;BME280;45749;51.140;17.184;2022-12-18T03:29:36;101897.98;;;-4.67;95.34
59877;BME280;45749;51.140;17.184;2022-12-18T03:32:12;101902.28;;;-4.66;95.39
59877;BME280;45749;51.140;17.184;2022-12-18T03:34:55;101909.20;;;-4.62;95.60
59877;BME280;45749;51.140;17.184;2022-12-18T03:37:24;101907.11;;;-4.58;95.52
59877;BME280;45749;51.140;17.184;2022-12-18T03:39:50;101909.73;;;-4.56;95.38
59877;BME280;45749;51.140;17.184;2022-12-18T03:42:22;101909.30;;;-4.56;95.31
59877;BME280;45749;51.140;17.184;2022-12-18T03:45:12;101902.05;;;-4.53;95.43
59877;BME280;45749;51.140;17.184;2022-12-18T03:53:17;101905.53;;;-4.50;95.33
59877;BME280;45749;51.140;17.184;2022-12-18T03:55:52;101910.26;;;-4.49;95.21
59877;BME280;45749;51.140;17.184;2022-12-18T03:58:21;101916.70;;;-4.48;95.20
59877;BME280;45749;51.140;17.184;2022-12-18T04:00:51;101909.83;;;-4.49;95.17
59877;BME280;45749;51.140;17.184;2022-12-18T04:03:20;101909.87;;;-4.47;95.14
59877;BME280;45749;51.140;17.184;2022-12-18T04:05:48;101915.42;;;-4.48;95.08
59877;BME280;45749;51.140;17.184;2022-12-18T04:08:15;101917.13;;;-4.48;95.08
59877;BME280;45749;51.140;17.184;2022-12-18T04:10:41;101924.00;;;-4.50;94.94
59877;BME280;45749;51.140;17.184;2022-12-18T04:13:09;101930.01;;;-4.50;95.05
59877;BME280;45749;51.140;17.184;2022-12-18T04:15:36;101929.15;;;-4.50;95.01
59877;BME280;45749;51.140;17.184;2022-12-18T04:18:03;101926.95;;;-4.52;95.00
59877;BME280;45749;51.140;17.184;2022-12-18T04:20:29;101940.23;;;-4.54;94.91
59877;BME280;45749;51.140;17.184;2022-12-18T04:22:55;101938.50;;;-4.55;95.04
59877;BME280;45749;51.140;17.184;2022-12-18T04:25:21;101939.84;;;-4.52;95.10
59877;BME280;45749;51.140;17.184;2022-12-18T04:27:46;101944.18;;;-4.50;95.30
59877;BME280;45749;51.140;17.184;2022-12-18T04:30:12;101948.92;;;-4.48;95.18
59877;BME280;45749;51.140;17.184;2022-12-18T04:32:38;101948.92;;;-4.48;95.07
59877;BME280;45749;51.140;17.184;2022-12-18T04:35:04;101947.23;;;-4.47;95.11
59877;BME280;45749;51.140;17.184;2022-12-18T04:37:32;101948.92;;;-4.48;95.03
59877;BME280;45749;51.140;17.184;2022-12-18T04:39:58;101949.77;;;-4.49;94.91
59877;BME280;45749;51.140;17.184;2022-12-18T04:42:24;101954.05;;;-4.51;94.85
59877;BME280;45749;51.140;17.184;2022-12-18T04:44:50;101963.51;;;-4.50;94.98
59877;BME280;45749;51.140;17.184;2022-12-18T04:47:16;101968.23;;;-4.49;95.03
59877;BME280;45749;51.140;17.184;2022-12-18T04:49:42;101975.58;;;-4.47;94.94
59877;BME280;45749;51.140;17.184;2022-12-18T04:52:08;101976.87;;;-4.47;94.91
59877;BME280;45749;51.140;17.184;2022-12-18T04:54:34;101982.03;;;-4.45;94.98
59877;BME280;45749;51.140;17.184;2022-12-18T04:57:00;101988.47;;;-4.45;94.95
59877;BME280;45749;51.140;17.184;2022-12-18T04:59:26;101988.52;;;-4.42;95.14
59877;BME280;45749;51.140;17.184;2022-12-18T05:01:52;101993.69;;;-4.41;95.09
59877;BME280;45749;51.140;17.184;2022-12-18T05:04:18;101990.71;;;-4.40;94.93
59877;BME280;45749;51.140;17.184;2022-12-18T05:06:44;101994.16;;;-4.40;94.94
59877;BME280;45749;51.140;17.184;2022-12-18T05:09:10;101989.81;;;-4.41;94.82
59877;BME280;45749;51.140;17.184;2022-12-18T05:11:36;101986.42;;;-4.38;94.92
59877;BME280;45749;51.140;17.184;2022-12-18T05:14:02;101986.84;;;-4.40;94.69
59877;BME280;45749;51.140;17.184;2022-12-18T05:16:28;101988.52;;;-4.42;94.71
59877;BME280;45749;51.140;17.184;2022-12-18T05:18:54;101990.25;;;-4.41;94.76
59877;BME280;45749;51.140;17.184;2022-12-18T05:21:19;101990.71;;;-4.40;94.73
59877;BME280;45749;51.140;17.184;2022-12-18T05:23:45;101990.20;;;-4.44;94.40
59877;BME280;45749;51.140;17.184;2022-12-18T05:26:14;101986.66;;;-4.51;94.32
59877;BME280;45749;51.140;17.184;2022-12-18T05:28:42;101991.33;;;-4.55;94.31
59877;BME280;45749;51.140;17.184;2022-12-18T05:31:08;101996.89;;;-4.57;94.46
59877;BME280;45749;51.140;17.184;2022-12-18T05:33:34;101996.05;;;-4.56;94.58
59877;BME280;45749;51.140;17.184;2022-12-18T05:36:02;102002.05;;;-4.57;94.50
59877;BME280;45749;51.140;17.184;2022-12-18T05:38:30;102000.28;;;-4.60;94.45
59877;BME280;45749;51.140;17.184;2022-12-18T05:40:57;101999.85;;;-4.59;94.54
59877;BME280;45749;51.140;17.184;2022-12-18T05:43:26;101999.80;;;-4.62;94.39
59877;BME280;45749;51.140;17.184;2022-12-18T05:45:53;102010.55;;;-4.61;94.62
59877;BME280;45749;51.140;17.184;2022-12-18T05:48:20;102003.72;;;-4.59;94.70
59877;BME280;45749;51.140;17.184;2022-12-18T05:50:48;102006.34;;;-4.56;94.71
59877;BME280;45749;51.140;17.184;2022-12-18T05:53:17;102008.07;;;-4.55;94.56
59877;BME280;45749;51.140;17.184;2022-12-18T05:55:44;102017.03;;;-4.58;94.31
59877;BME280;45749;51.140;17.184;2022-12-18T05:58:12;102018.31;;;-4.60;94.43
59877;BME280;45749;51.140;17.184;2022-12-18T06:00:41;102025.62;;;-4.59;94.40
59877;BME280;45749;51.140;17.184;2022-12-18T06:03:10;102035.54;;;-4.57;94.48
59877;BME280;45749;51.140;17.184;2022-12-18T06:05:38;102051.81;;;-4.58;94.40
59877;BME280;45749;51.140;17.184;2022-12-18T06:08:05;102050.09;;;-4.59;94.07
59877;BME280;45749;51.140;17.184;2022-12-18T06:10:32;102053.91;;;-4.62;94.02
59877;BME280;45749;51.140;17.184;2022-12-18T06:12:58;102056.84;;;-4.66;93.78
59877;BME280;45749;51.140;17.184;2022-12-18T06:15:24;102048.22;;;-4.68;93.95
59877;BME280;45749;51.140;17.184;2022-12-18T06:17:50;102053.41;;;-4.66;94.04
59877;BME280;45749;51.140;17.184;2022-12-18T06:20:16;102057.70;;;-4.67;94.06
59877;BME280;45749;51.140;17.184;2022-12-18T06:22:42;102061.08;;;-4.69;93.90
59877;BME280;45749;51.140;17.184;2022-12-18T06:25:08;102063.61;;;-4.71;93.78
59877;BME280;45749;51.140;17.184;2022-12-18T06:27:34;102068.34;;;-4.71;93.92
59877;BME280;45749;51.140;17.184;2022-12-18T06:30:00;102067.96;;;-4.68;94.04
59877;BME280;45749;51.140;17.184;2022-12-18T06:32:27;102078.70;;;-4.67;93.97
59877;BME280;45749;51.140;17.184;2022-12-18T06:34:53;102072.25;;;-4.69;94.11
59877;BME280;45749;51.140;17.184;2022-12-18T06:37:21;102071.45;;;-4.65;94.12
59877;BME280;45749;51.140;17.184;2022-12-18T06:39:49;102082.67;;;-4.63;94.13
59877;BME280;45749;51.140;17.184;2022-12-18T06:42:15;102084.83;;;-4.61;94.05
59877;BME280;45749;51.140;17.184;2022-12-18T06:44:41;102085.31;;;-4.58;93.92
59877;BME280;45749;51.140;17.184;2022-12-18T06:47:07;102090.87;;;-4.60;93.74
59877;BME280;45749;51.140;17.184;2022-12-18T06:49:32;102096.89;;;-4.60;93.71
59877;BME280;45749;51.140;17.184;2022-12-18T06:51:58;102095.56;;;-4.61;93.74
59877;BME280;45749;51.140;17.184;2022-12-18T06:54:24;102098.08;;;-4.64;93.65
59877;BME280;45749;51.140;17.184;2022-12-18T06:56:50;102102.36;;;-4.66;93.57
59877;BME280;45749;51.140;17.184;2022-12-18T06:59:16;102108.31;;;-4.69;93.56
59877;BME280;45749;51.140;17.184;2022-12-18T07:01:42;102112.98;;;-4.72;93.56
59877;BME280;45749;51.140;17.184;2022-12-18T07:04:07;102107.39;;;-4.73;93.61
59877;BME280;45749;51.140;17.184;2022-12-18T07:06:33;102108.27;;;-4.71;93.76
59877;BME280;45749;51.140;17.184;2022-12-18T07:08:59;102109.17;;;-4.68;93.70
59877;BME280;45749;51.140;17.184;2022-12-18T07:11:25;102106.23;;;-4.65;93.93
59877;BME280;45749;51.140;17.184;2022-12-18T07:13:52;102109.66;;;-4.66;93.73
59877;BME280;45749;51.140;17.184;2022-12-18T07:16:21;102111.43;;;-4.63;93.82
59877;BME280;45749;51.140;17.184;2022-12-18T07:18:47;102121.75;;;-4.62;93.66
59877;BME280;45749;51.140;17.184;2022-12-18T07:21:16;102120.02;;;-4.63;93.53
59877;BME280;45749;51.140;17.184;2022-12-18T07:23:43;102118.63;;;-4.67;93.37
59877;BME280;45749;51.140;17.184;2022-12-18T07:26:12;102121.12;;;-4.74;93.18
59877;BME280;45749;51.140;17.184;2022-12-18T07:28:40;102122.71;;;-4.80;93.14
59877;BME280;45749;51.140;17.184;2022-12-18T07:31:13;102133.75;;;-4.86;93.16
59877;BME280;45749;51.140;17.184;2022-12-18T07:33:37;102126.04;;;-4.84;93.41
59877;BME280;45749;51.140;17.184;2022-12-18T07:36:05;102132.95;;;-4.83;93.37
59877;BME280;45749;51.140;17.184;2022-12-18T07:38:33;102137.69;;;-4.81;93.40
59877;BME280;45749;51.140;17.184;2022-12-18T07:41:05;102140.73;;;-4.80;93.54
59877;BME280;45749;51.140;17.184;2022-12-18T07:43:34;102140.27;;;-4.81;93.39
59877;BME280;45749;51.140;17.184;2022-12-18T07:46:01;102150.55;;;-4.83;93.35
59877;BME280;45749;51.140;17.184;2022-12-18T07:48:28;102151.36;;;-4.85;93.28
59877;BME280;45749;51.140;17.184;2022-12-18T07:51:03;102150.05;;;-4.87;93.37
59877;BME280;45749;51.140;17.184;2022-12-18T07:53:31;102154.67;;;-4.91;93.16
59877;BME280;45749;51.140;17.184;2022-12-18T07:55:59;102150.80;;;-4.91;93.44
59877;BME280;45749;51.140;17.184;2022-12-18T07:58:28;102145.66;;;-4.91;93.40
59877;BME280;45749;51.140;17.184;2022-12-18T08:01:03;102143.91;;;-4.93;93.36
59877;BME280;45749;51.140;17.184;2022-12-18T08:03:32;102150.30;;;-4.95;93.39
59877;BME280;45749;51.140;17.184;2022-12-18T08:06:06;102150.67;;;-4.97;93.41
59877;BME280;45749;51.140;17.184;2022-12-18T08:08:34;102154.10;;;-4.98;93.46
59877;BME280;45749;51.140;17.184;2022-12-18T08:11:01;102164.40;;;-4.98;93.56
59877;BME280;45749;51.140;17.184;2022-12-18T08:13:28;102166.53;;;-4.99;93.49
59877;BME280;45749;51.140;17.184;2022-12-18T08:16:02;102164.40;;;-4.98;93.65
59877;BME280;45749;51.140;17.184;2022-12-18T08:18:31;102169.13;;;-4.98;93.63
59877;BME280;45749;51.140;17.184;2022-12-18T08:20:57;102175.63;;;-4.95;93.74
59877;BME280;45749;51.140;17.184;2022-12-18T08:23:25;102175.25;;;-4.92;93.57
59877;BME280;45749;51.140;17.184;2022-12-18T08:25:51;102186.84;;;-4.92;93.50
59877;BME280;45749;51.140;17.184;2022-12-18T08:28:17;102187.70;;;-4.92;93.49
59877;BME280;45749;51.140;17.184;2022-12-18T08:30:51;102185.62;;;-4.89;93.62
59877;BME280;45749;51.140;17.184;2022-12-18T08:33:20;102187.78;;;-4.87;93.54
59877;BME280;45749;51.140;17.184;2022-12-18T08:35:47;102190.36;;;-4.87;93.55
59877;BME280;45749;51.140;17.184;2022-12-18T08:38:13;102193.84;;;-4.87;93.55
59877;BME280;45749;51.140;17.184;2022-12-18T08:40:39;102199.42;;;-4.86;93.54
59877;BME280;45749;51.140;17.184;2022-12-18T08:43:04;102209.37;;;-4.82;93.74
59877;BME280;45749;51.140;17.184;2022-12-18T08:45:49;102210.72;;;-4.79;93.62
59877;BME280;45749;51.140;17.184;2022-12-18T08:48:15;102221.88;;;-4.80;93.42
59877;BME280;45749;51.140;17.184;2022-12-18T08:50:41;102219.73;;;-4.79;93.44
59877;BME280;45749;51.140;17.184;2022-12-18T08:53:07;102221.45;;;-4.80;93.18
59877;BME280;45749;51.140;17.184;2022-12-18T08:55:33;102230.48;;;-4.78;93.25
59877;BME280;45749;51.140;17.184;2022-12-18T08:58:00;102227.95;;;-4.77;93.39
59877;BME280;45749;51.140;17.184;2022-12-18T09:00:26;102226.23;;;-4.76;93.17
59877;BME280;45749;51.140;17.184;2022-12-18T09:02:52;102226.59;;;-4.80;93.02
59877;BME280;45749;51.140;17.184;2022-12-18T09:05:18;102214.08;;;-4.83;92.87
59877;BME280;45749;51.140;17.184;2022-12-18T09:07:44;102214.45;;;-4.85;93.09
59877;BME280;45749;51.140;17.184;2022-12-18T09:10:10;102210.22;;;-4.83;93.41
59877;BME280;45749;51.140;17.184;2022-12-18T09:12:36;102220.11;;;-4.81;93.29
59877;BME280;45749;51.140;17.184;2022-12-18T09:15:02;102224.89;;;-4.79;93.26
59877;BME280;45749;51.140;17.184;2022-12-18T09:17:28;102213.36;;;-4.76;93.38
59877;BME280;45749;51.140;17.184;2022-12-18T09:19:54;102211.27;;;-4.74;93.15
59877;BME280;45749;51.140;17.184;2022-12-18T09:22:21;102198.39;;;-4.74;92.89
59877;BME280;45749;51.140;17.184;2022-12-18T09:24:48;102195.33;;;-4.76;92.88
59877;BME280;45749;51.140;17.184;2022-12-18T09:27:14;102200.00;;;-4.79;92.71
59877;BME280;45749;51.140;17.184;2022-12-18T09:29:40;102190.48;;;-4.83;92.48
59877;BME280;45749;51.140;17.184;2022-12-18T09:32:06;102190.78;;;-4.88;92.47
59877;BME280;45749;51.140;17.184;2022-12-18T09:34:32;102181.76;;;-4.89;92.59
59877;BME280;45749;51.140;17.184;2022-12-18T09:36:58;102174.47;;;-4.88;92.75
59877;BME280;45749;51.140;17.184;2022-12-18T09:39:25;102173.23;;;-4.87;92.88
59877;BME280;45749;51.140;17.184;2022-12-18T09:41:53;102165.16;;;-4.82;93.20
59877;BME280;45749;51.140;17.184;2022-12-18T09:44:39;102160.07;;;-4.79;92.85
59877;BME280;45749;51.140;17.184;2022-12-18T09:47:27;102154.91;;;-4.80;92.71
59877;BME280;45749;51.140;17.184;2022-12-18T09:50:00;102149.70;;;-4.82;92.64
59877;BME280;45749;51.140;17.184;2022-12-18T09:52:31;102158.77;;;-4.80;92.82
59877;BME280;45749;51.140;17.184;2022-12-18T09:58:05;102154.50;;;-4.78;92.97
59877;BME280;45749;51.140;17.184;2022-12-18T10:00:32;102154.61;;;-4.74;93.24
59877;BME280;45749;51.140;17.184;2022-12-18T10:03:08;102161.56;;;-4.68;93.01
59877;BME280;45749;51.140;17.184;2022-12-18T10:08:51;102158.63;;;-4.64;92.79
59877;BME280;45749;51.140;17.184;2022-12-18T10:11:25;102157.76;;;-4.65;92.86
59877;BME280;45749;51.140;17.184;2022-12-18T10:17:02;102168.55;;;-4.62;92.80
59877;BME280;45749;51.140;17.184;2022-12-18T10:19:43;102172.42;;;-4.61;92.93
59877;BME280;45749;51.140;17.184;2022-12-18T10:27:43;102177.12;;;-4.63;92.55
59877;BME280;45749;51.140;17.184;2022-12-18T10:30:15;102179.70;;;-4.63;92.68
59877;BME280;45749;51.140;17.184;2022-12-18T10:32:42;102181.91;;;-4.60;92.53
59877;BME280;45749;51.140;17.184;2022-12-18T10:35:27;102179.29;;;-4.61;92.33
59877;BME280;45749;51.140;17.184;2022-12-18T10:41:06;102169.03;;;-4.60;92.68
59877;BME280;45749;51.140;17.184;2022-12-18T10:43:41;102169.39;;;-4.63;92.39
59877;BME280;45749;51.140;17.184;2022-12-18T10:48:47;102173.70;;;-4.62;92.19
59877;BME280;45749;51.140;17.184;2022-12-18T10:51:29;102175.36;;;-4.64;92.53
59877;BME280;45749;51.140;17.184;2022-12-18T10:54:14;102174.12;;;-4.63;92.46
59877;BME280;45749;51.140;17.184;2022-12-18T10:56:36;102183.14;;;-4.63;92.38
59877;BME280;45749;51.140;17.184;2022-12-18T10:59:06;102177.50;;;-4.65;92.47
59877;BME280;45749;51.140;17.184;2022-12-18T11:01:52;102176.77;;;-4.60;92.72
59877;BME280;45749;51.140;17.184;2022-12-18T11:04:30;102179.77;;;-4.60;92.57
59877;BME280;45749;51.140;17.184;2022-12-18T11:07:05;102179.29;;;-4.61;92.46
59877;BME280;45749;51.140;17.184;2022-12-18T11:09:35;102183.64;;;-4.59;92.58
59877;BME280;45749;51.140;17.184;2022-12-18T11:12:20;102184.98;;;-4.57;92.40
59877;BME280;45749;51.140;17.184;2022-12-18T11:14:49;102182.84;;;-4.56;92.45
59877;BME280;45749;51.140;17.184;2022-12-18T11:17:19;102186.28;;;-4.56;92.37
59877;BME280;45749;51.140;17.184;2022-12-18T11:19:55;102188.86;;;-4.56;92.16
59877;BME280;45749;51.140;17.184;2022-12-18T11:22:27;102187.55;;;-4.57;92.33
59877;BME280;45749;51.140;17.184;2022-12-18T11:25:00;102190.57;;;-4.56;92.17
59877;BME280;45749;51.140;17.184;2022-12-18T11:27:28;102197.89;;;-4.54;92.24
59877;BME280;45749;51.140;17.184;2022-12-18T11:32:53;102203.53;;;-4.52;92.16
59877;BME280;45749;51.140;17.184;2022-12-18T11:35:52;102203.95;;;-4.52;92.45
59877;BME280;45749;51.140;17.184;2022-12-18T11:38:22;102203.59;;;-4.49;92.39
59877;BME280;45749;51.140;17.184;2022-12-18T11:43:58;102196.78;;;-4.45;92.46
59877;BME280;45749;51.140;17.184;2022-12-18T11:46:30;102198.50;;;-4.45;92.25
59877;BME280;45749;51.140;17.184;2022-12-18T11:49:06;102197.58;;;-4.48;92.19
59877;BME280;45749;51.140;17.184;2022-12-18T11:52:14;102186.03;;;-4.46;92.32
59877;BME280;45749;51.140;17.184;2022-12-18T11:54:55;102181.36;;;-4.43;92.31
59877;BME280;45749;51.140;17.184;2022-12-18T11:57:34;102174.06;;;-4.44;92.13
59877;BME280;45749;51.140;17.184;2022-12-18T12:13:36;102175.43;;;-4.38;92.31
59877;BME280;45749;51.140;17.184;2022-12-18T12:21:40;102167.86;;;-4.30;92.35
59877;BME280;45749;51.140;17.184;2022-12-18T12:35:38;102156.74;;;-4.28;92.45
59877;BME280;45749;51.140;17.184;2022-12-18T12:40:58;102158.47;;;-4.27;91.69
59877;BME280;45749;51.140;17.184;2022-12-18T12:46:20;102164.48;;;-4.28;91.78
59877;BME280;45749;51.140;17.184;2022-12-18T12:48:50;102165.77;;;-4.28;91.80
59877;BME280;45749;51.140;17.184;2022-12-18T12:51:32;102167.50;;;-4.25;91.92
59877;BME280;45749;51.140;17.184;2022-12-18T12:54:03;102170.13;;;-4.23;91.90
59877;BME280;45749;51.140;17.184;2022-12-18T12:56:46;102167.97;;;-4.24;91.76
59877;BME280;45749;51.140;17.184;2022-12-18T13:02:33;102168.37;;;-4.25;91.77
59877;BME280;45749;51.140;17.184;2022-12-18T13:10:37;102166.14;;;-4.30;91.45
59877;BME280;45749;51.140;17.184;2022-12-18T13:13:10;102170.82;;;-4.32;91.44
59877;BME280;45749;51.140;17.184;2022-12-18T13:15:38;102165.61;;;-4.35;91.53
59877;BME280;45749;51.140;17.184;2022-12-18T13:18:12;102172.48;;;-4.36;91.60
59877;BME280;45749;51.140;17.184;2022-12-18T13:20:48;102169.03;;;-4.36;91.70
59877;BME280;45749;51.140;17.184;2022-12-18T13:23:33;102171.63;;;-4.35;91.94
59877;BME280;45749;51.140;17.184;2022-12-18T13:26:00;102163.45;;;-4.36;91.56
59877;BME280;45749;51.140;17.184;2022-12-18T13:34:21;102165.78;;;-4.50;90.99
59877;BME280;45749;51.140;17.184;2022-12-18T13:36:48;102161.79;;;-4.57;91.12
59877;BME280;45749;51.140;17.184;2022-12-18T13:41:52;102166.39;;;-4.63;91.39
59877;BME280;45749;51.140;17.184;2022-12-18T13:44:34;102171.06;;;-4.65;91.50
59877;BME280;45749;51.140;17.184;2022-12-18T13:47:04;102181.85;;;-4.63;91.63
59877;BME280;45749;51.140;17.184;2022-12-18T13:49:39;102178.79;;;-4.65;91.46
59877;BME280;45749;51.140;17.184;2022-12-18T13:52:22;102183.08;;;-4.66;91.52
59877;BME280;45749;51.140;17.184;2022-12-18T13:54:55;102178.78;;;-4.67;91.53
59877;BME280;45749;51.140;17.184;2022-12-18T13:57:31;102183.93;;;-4.67;91.40
59877;BME280;45749;51.140;17.184;2022-12-18T14:02:47;102190.69;;;-4.72;91.31
59877;BME280;45749;51.140;17.184;2022-12-18T14:05:27;102199.68;;;-4.74;91.48
59877;BME280;45749;51.140;17.184;2022-12-18T14:08:06;102192.77;;;-4.75;91.49
59877;BME280;45749;51.140;17.184;2022-12-18T14:10:34;102188.47;;;-4.76;91.33
59877;BME280;45749;51.140;17.184;2022-12-18T14:13:06;102187.05;;;-4.82;91.12
59877;BME280;45749;51.140;17.184;2022-12-18T14:15:39;102188.21;;;-4.88;91.17
59877;BME280;45749;51.140;17.184;2022-12-18T14:18:26;102197.56;;;-4.93;91.34
59877;BME280;45749;51.140;17.184;2022-12-18T14:21:24;102208.61;;;-4.97;91.38
59877;BME280;45749;51.140;17.184;2022-12-18T14:27:12;102219.61;;;-5.06;91.56
59877;BME280;45749;51.140;17.184;2022-12-18T14:29:42;102221.27;;;-5.08;91.61
59877;BME280;45749;51.140;17.184;2022-12-18T14:32:15;102219.95;;;-5.09;91.60
59877;BME280;45749;51.140;17.184;2022-12-18T14:34:50;102214.74;;;-5.12;91.54
59877;BME280;45749;51.140;17.184;2022-12-18T14:37:22;102221.95;;;-5.16;91.54
59877;BME280;45749;51.140;17.184;2022-12-18T14:39:58;102218.88;;;-5.19;91.61
59877;BME280;45749;51.140;17.184;2022-12-18T14:42:27;102234.27;;;-5.21;91.58
59877;BME280;45749;51.140;17.184;2022-12-18T14:51:05;102232.83;;;-5.28;91.52